Terminal Aerodrome Forecast
Issued by NWS Atlanta, GA

Home | Current Version | Previous Version | Text Only | Print | Product List | Glossary On
Versions: 1 2 3 4 5 6 7 8 9 10 11 12 13 14 15 16 17 18 19 20 21 22 23
000
FTUS42 KFFC 051312 AAA
TAFMCN
TAF AMD
KMCN 051312Z 0513/0612 21010G15KT P6SM VCSH SCT020 BKN050
     FM051500 24010G18KT 3SM -RA OVC020
     FM051700 27010G20KT 5SM -RA OVC015
     FM052300 33010G15KT P6SM VCSH OVC025
     FM060100 34010KT P6SM OVC040
     FM060800 02007KT P6SM BKN050
     FM061000 03007KT P6SM BKN025=

USA.gov is the U.S. government's official web portal to all federal, state and local government web resources and services.